Time;durP1;ratioP1;P1;durP2;ratioP2;P2;SDS_P1;SDS_P2;PMS_P1;PMS_P2;Temp;Humidity;BMP_temperature;BMP_pressure;BME280_temperature;BME280_humidity;BME280_pressure;Samples;Min_cycle;Max_cycle;Signal;HPM_P1;HPM_P2
2023/05/09 00:00:32;;;;;;;3.63;3.33;;;;;;;12.75;100.00;63315.50;5017784;28;20206;-75
2023/05/09 00:02:59;;;;;;;3.13;2.95;;;;;;;12.80;100.00;63323.22;5023162;28;20287;-75
2023/05/09 00:05:27;;;;;;;3.20;2.95;;;;;;;12.75;100.00;63318.03;5023885;28;20263;-75
2023/05/09 00:07:54;;;;;;;3.55;3.35;;;;;;;12.68;100.00;63310.78;5025471;28;20218;-75
2023/05/09 00:10:23;;;;;;;3.53;3.22;;;;;;;12.64;100.00;63301.53;5019282;28;20257;-74
2023/05/09 00:12:51;;;;;;;4.28;3.47;;;;;;;12.61;100.00;63300.97;5023883;28;20242;-75
2023/05/09 00:15:19;;;;;;;3.55;3.25;;;;;;;12.57;100.00;63297.34;5023839;28;20230;-75
2023/05/09 00:17:46;;;;;;;3.05;2.90;;;;;;;12.60;100.00;63300.44;5023821;28;20214;-75
2023/05/09 00:20:14;;;;;;;3.40;3.20;;;;;;;12.65;100.00;63300.00;5022146;28;20218;-75
2023/05/09 00:22:41;;;;;;;3.38;3.10;;;;;;;12.66;100.00;63304.13;5025323;28;20236;-76
2023/05/09 00:25:10;;;;;;;3.53;3.33;;;;;;;12.72;100.00;63312.88;5025112;28;20202;-75
2023/05/09 00:27:39;;;;;;;3.28;3.08;;;;;;;12.77;100.00;63315.50;5018291;28;20231;-76
2023/05/09 00:30:08;;;;;;;3.38;3.17;;;;;;;12.81;100.00;63316.59;5022639;28;20209;-74
2023/05/09 00:32:35;;;;;;;3.65;3.45;;;;;;;12.86;100.00;63324.34;5027036;28;20285;-75
2023/05/09 00:35:03;;;;;;;3.80;3.50;;;;;;;12.97;100.00;63335.22;5024221;28;20241;-74
2023/05/09 00:37:32;;;;;;;3.40;3.20;;;;;;;12.90;100.00;63328.47;5016072;28;20227;-75
2023/05/09 00:39:59;;;;;;;3.55;3.35;;;;;;;12.90;100.00;63328.47;5025363;28;20198;-76
2023/05/09 00:42:27;;;;;;;3.20;3.00;;;;;;;12.84;100.00;63322.25;5023992;28;20226;-75
2023/05/09 00:44:59;;;;;;;4.28;3.55;;;;;;;12.90;100.00;63325.41;5018210;28;20192;-76
2023/05/09 00:47:28;;;;;;;3.67;3.47;;;;;;;12.93;100.00;63333.63;5012750;28;20226;-77
2023/05/09 00:49:56;;;;;;;3.20;3.00;;;;;;;13.00;100.00;63343.97;5022365;28;20500;-75
2023/05/09 00:52:26;;;;;;;3.30;3.10;;;;;;;13.04;100.00;63348.13;5023045;28;20397;-75
2023/05/09 00:54:54;;;;;;;3.83;3.63;;;;;;;13.08;100.00;63351.78;5021532;28;20226;-75
2023/05/09 00:57:22;;;;;;;3.60;3.40;;;;;;;13.02;100.00;63340.94;5023324;28;20221;-76
2023/05/09 00:59:49;;;;;;;3.47;3.28;;;;;;;12.90;100.00;63333.59;5022755;28;20214;-75
2023/05/09 01:02:19;;;;;;;4.45;4.15;;;;;;;12.77;100.00;63315.50;5025786;28;20245;-74
2023/05/09 01:04:46;;;;;;;3.97;3.78;;;;;;;12.73;100.00;63316.47;5012923;28;20271;-75
2023/05/09 01:07:22;;;;;;;4.55;4.15;;;;;;;12.70;100.00;63307.75;5004188;28;20223;-74
2023/05/09 01:09:57;;;;;;;4.78;4.47;;;;;;;12.42;100.00;63281.28;5009609;28;20202;-74
2023/05/09 01:12:31;;;;;;;4.22;3.92;;;;;;;12.21;100.00;63256.94;5006804;28;20237;-72
2023/05/09 01:15:06;;;;;;;4.13;3.85;;;;;;;12.15;100.00;63253.28;5026344;28;20299;-73
2023/05/09 01:17:44;;;;;;;5.20;4.60;;;;;;;12.10;100.00;63250.63;5028470;28;20210;-75
2023/05/09 01:20:20;;;;;;;4.45;4.15;;;;;;;12.08;100.00;63243.97;5028689;28;20233;-75
2023/05/09 01:22:55;;;;;;;4.78;4.38;;;;;;;12.28;100.00;63264.72;5012995;28;20210;-75
2023/05/09 01:25:44;;;;;;;5.00;4.25;;;;;;;12.41;100.00;63280.75;5028981;28;20507;-75
2023/05/09 01:28:26;;;;;;;4.10;3.78;;;;;;;12.53;100.00;63293.19;5028675;28;20225;-75
2023/05/09 01:30:55;;;;;;;5.05;4.57;;;;;;;12.59;100.00;63296.88;5025421;28;20209;-75
2023/05/09 01:33:25;;;;;;;4.55;4.25;;;;;;;12.67;100.00;63305.16;5028950;28;20198;-75
2023/05/09 01:35:57;;;;;;;5.13;4.50;;;;;;;12.64;100.00;63296.94;5027349;28;20243;-75
2023/05/09 01:38:26;;;;;;;4.43;4.03;;;;;;;12.76;100.00;63313.97;5026180;28;20258;-75
2023/05/09 01:40:55;;;;;;;4.72;4.32;;;;;;;12.82;100.00;63322.22;5012118;28;20194;-75
2023/05/09 01:43:28;;;;;;;4.72;4.43;;;;;;;12.84;100.00;63324.81;5024442;28;20202;-75
2023/05/09 01:45:59;;;;;;;4.38;4.07;;;;;;;12.93;100.00;63331.59;5026427;28;20203;-75
2023/05/09 01:48:29;;;;;;;4.75;4.40;;;;;;;12.80;100.00;63321.19;5025844;28;20246;-75
2023/05/09 01:50:59;;;;;;;4.30;4.00;;;;;;;12.77;100.00;63317.53;5026769;28;20198;-75
2023/05/09 01:53:28;;;;;;;4.20;3.90;;;;;;;12.82;100.00;63320.19;5027689;28;20252;-75
2023/05/09 01:55:58;;;;;;;4.68;4.38;;;;;;;12.82;100.00;63323.25;5028037;28;20265;-74
2023/05/09 01:58:27;;;;;;;3.70;3.50;;;;;;;12.84;100.00;63321.75;5010211;28;20214;-74
2023/05/09 02:00:57;;;;;;;4.43;4.00;;;;;;;12.78;100.00;63316.03;5007208;28;20238;-76
2023/05/09 02:03:25;;;;;;;4.35;4.03;;;;;;;12.89;100.00;63327.44;5028022;28;20209;-75
2023/05/09 02:05:53;;;;;;;3.75;3.55;;;;;;;12.90;100.00;63327.97;5023063;28;20312;-76
2023/05/09 02:08:21;;;;;;;4.50;4.10;;;;;;;12.80;100.00;63321.19;5007452;28;20196;-74
2023/05/09 02:10:49;;;;;;;4.10;3.70;;;;;;;12.68;100.00;63308.72;5014025;28;20258;-74
2023/05/09 02:13:16;;;;;;;4.72;4.32;;;;;;;12.67;100.00;63312.28;5024856;28;20531;-75
2023/05/09 02:15:44;;;;;;;6.50;3.83;;;;;;;12.63;100.00;63300.50;5016815;28;20291;-75
2023/05/09 02:18:15;;;;;;;3.88;3.58;;;;;;;12.61;100.00;63298.91;5027801;28;20214;-76
2023/05/09 02:20:42;;;;;;;3.60;3.30;;;;;;;12.63;100.00;63303.03;5025944;28;20195;-75
2023/05/09 02:23:09;;;;;;;3.67;3.47;;;;;;;12.65;100.00;63305.63;5025417;28;20222;-75
2023/05/09 02:25:38;;;;;;;4.53;4.10;;;;;;;12.60;100.00;63300.44;5009574;28;20579;-75
2023/05/09 02:28:08;;;;;;;3.60;3.40;;;;;;;12.52;100.00;63289.59;5016838;28;20210;-75
2023/05/09 02:30:40;;;;;;;3.95;3.65;;;;;;;12.43;100.00;63282.81;5024313;28;20202;-76
2023/05/09 02:33:10;;;;;;;3.92;3.63;;;;;;;12.54;100.00;63291.69;5019143;28;20254;-76
2023/05/09 02:35:42;;;;;;;3.67;3.47;;;;;;;12.34;100.00;63273.47;5007839;28;20242;-76
2023/05/09 02:38:11;;;;;;;4.05;3.72;;;;;;;12.30;100.00;63271.38;5012837;28;20265;-76
2023/05/09 02:40:39;;;;;;;3.67;3.47;;;;;;;12.25;100.00;63263.66;5005335;28;20270;-75
2023/05/09 02:43:07;;;;;;;3.90;3.67;;;;;;;12.28;100.00;63269.31;5013820;28;20213;-76
2023/05/09 02:45:34;;;;;;;4.25;3.92;;;;;;;12.38;100.00;63272.00;5025562;28;20202;-75
2023/05/09 02:48:01;;;;;;;3.22;3.05;;;;;;;12.36;100.00;63278.13;5013539;28;20238;-75
2023/05/09 02:50:28;;;;;;;3.70;3.50;;;;;;;12.40;100.00;63279.72;5006945;28;20418;-76
2023/05/09 02:52:57;;;;;;;6.53;3.42;;;;;;;12.45;100.00;63282.34;5022913;28;20222;-76
2023/05/09 02:55:24;;;;;;;4.97;3.97;;;;;;;12.20;100.00;63256.41;5027238;28;20285;-76
2023/05/09 02:57:52;;;;;;;3.65;3.45;;;;;;;12.14;100.00;63252.22;5021237;28;20226;-75
2023/05/09 03:00:20;;;;;;;3.55;3.35;;;;;;;12.05;100.00;63240.88;5025117;28;20199;-74
2023/05/09 03:02:47;;;;;;;4.25;3.95;;;;;;;12.02;100.00;63237.25;5029738;28;20261;-76
2023/05/09 03:05:14;;;;;;;4.05;3.80;;;;;;;12.08;100.00;63246.03;5027559;28;20195;-75
2023/05/09 03:07:41;;;;;;;4.35;4.05;;;;;;;12.02;100.00;63237.78;5023329;28;20455;-74
2023/05/09 03:10:11;;;;;;;4.25;3.95;;;;;;;12.01;100.00;63233.66;5025293;28;20571;-76
2023/05/09 03:12:38;;;;;;;4.38;4.07;;;;;;;11.89;100.00;63223.78;5027081;28;20223;-75
2023/05/09 03:15:06;;;;;;;4.72;4.13;;;;;;;11.51;100.00;63185.41;5023206;28;20535;-75
2023/05/09 03:17:34;;;;;;;4.65;4.35;;;;;;;11.74;100.00;63211.31;5021610;28;20214;-74
2023/05/09 03:20:04;;;;;;;4.88;4.47;;;;;;;11.70;100.00;63209.19;5028460;28;20431;-74
2023/05/09 03:22:31;;;;;;;7.03;4.93;;;;;;;11.86;100.00;63220.66;5025168;28;20261;-75
2023/05/09 03:24:58;;;;;;;5.07;4.35;;;;;;;11.84;100.00;63216.56;5018359;28;20202;-74
2023/05/09 03:27:27;;;;;;;4.70;4.30;;;;;;;11.88;100.00;63223.25;5004850;28;20322;-74
2023/05/09 03:29:55;;;;;;;4.45;4.15;;;;;;;12.01;100.00;63233.66;5008318;28;20339;-74
2023/05/09 03:32:22;;;;;;;5.18;4.65;;;;;;;11.96;100.00;63231.03;5007023;28;20223;-75
2023/05/09 03:34:49;;;;;;;5.40;4.93;;;;;;;11.89;100.00;63224.28;5015288;28;20203;-76
2023/05/09 03:37:16;;;;;;;5.07;4.38;;;;;;;11.86;100.00;63218.63;5007428;28;20231;-77
2023/05/09 03:39:43;;;;;;;5.35;4.95;;;;;;;11.82;100.00;63216.53;5017774;28;20267;-76
2023/05/09 03:42:10;;;;;;;6.10;5.30;;;;;;;11.83;100.00;63223.19;5022975;28;20227;-76
2023/05/09 03:44:39;;;;;;;5.35;4.95;;;;;;;11.79;100.00;63213.94;5017149;28;20198;-76
2023/05/09 03:47:06;;;;;;;5.20;4.80;;;;;;;11.81;100.00;63218.56;5025992;28;20330;-76
2023/05/09 03:49:34;;;;;;;6.38;5.85;;;;;;;11.89;100.00;63224.28;5024636;28;20250;-75
2023/05/09 03:52:01;;;;;;;8.70;5.90;;;;;;;12.06;100.00;63238.84;5019516;28;20230;-76
2023/05/09 03:54:28;;;;;;;6.72;6.13;;;;;;;11.99;100.00;63237.22;5025162;28;20269;-76
2023/05/09 03:56:55;;;;;;;5.72;5.32;;;;;;;12.09;100.00;63244.50;5027217;28;20233;-75
2023/05/09 03:59:23;;;;;;;5.28;4.95;;;;;;;12.10;100.00;63243.50;5024188;28;20409;-78
2023/05/09 04:01:52;;;;;;;6.97;4.90;;;;;;;12.18;100.00;63248.72;5018823;28;20423;-76
2023/05/09 04:04:20;;;;;;;5.97;5.55;;;;;;;12.24;100.00;63268.22;5007957;28;20534;-76
2023/05/09 04:06:47;;;;;;;5.80;5.30;;;;;;;12.48;100.00;63284.94;5004407;28;20513;-77
2023/05/09 04:09:15;;;;;;;5.88;5.32;;;;;;;12.51;100.00;63286.00;5006598;28;20200;-76
2023/05/09 04:11:43;;;;;;;5.55;5.07;;;;;;;12.41;100.00;63280.22;5014841;28;20229;-77
2023/05/09 04:14:10;;;;;;;5.22;4.82;;;;;;;12.46;100.00;63283.38;5026059;28;20205;-77
2023/05/09 04:16:37;;;;;;;6.45;5.20;;;;;;;12.76;100.00;63311.41;5023198;28;20230;-77
2023/05/09 04:19:06;;;;;;;5.53;5.05;;;;;;;12.79;100.00;63317.06;5024313;28;20207;-77
2023/05/09 04:21:34;;;;;;;4.75;4.38;;;;;;;12.88;100.00;63331.50;5021643;28;20222;-77
2023/05/09 04:24:01;;;;;;;5.28;4.20;;;;;;;13.01;100.00;63339.38;5024019;28;20233;-76
2023/05/09 04:26:30;;;;;;;4.60;4.30;;;;;;;13.00;100.00;63343.44;5021633;28;20226;-77
2023/05/09 04:28:57;;;;;;;5.03;4.68;;;;;;;12.86;100.00;63324.34;5022073;28;20225;-76
2023/05/09 04:31:25;;;;;;;4.47;4.05;;;;;;;13.02;100.00;63343.50;5020919;28;20425;-76
2023/05/09 04:33:52;;;;;;;4.10;3.80;;;;;;;13.03;100.00;63346.59;5020197;28;20407;-75
2023/05/09 04:36:21;;;;;;;5.13;3.75;;;;;;;12.97;100.00;63338.31;5023321;28;20252;-76
2023/05/09 04:38:48;;;;;;;5.00;3.88;;;;;;;13.04;100.00;63342.50;5021526;28;20408;-75
2023/05/09 04:41:16;;;;;;;4.40;4.10;;;;;;;13.11;100.00;63355.41;5023444;28;20227;-75
2023/05/09 04:43:43;;;;;;;3.67;3.47;;;;;;;13.36;100.00;63375.69;5024927;28;20198;-76
2023/05/09 04:46:10;;;;;;;3.55;3.35;;;;;;;13.55;100.00;63395.41;5032007;28;20235;-77
2023/05/09 04:48:38;;;;;;;3.75;3.45;;;;;;;13.68;100.00;63411.47;5026655;28;20222;-75
2023/05/09 04:51:05;;;;;;;3.60;3.40;;;;;;;13.70;100.00;63411.50;5024181;28;20283;-75
2023/05/09 04:53:35;;;;;;;3.80;3.50;;;;;;;13.90;100.00;63434.31;5028666;28;20553;-76
2023/05/09 04:56:02;;;;;;;5.75;3.38;;;;;;;13.93;100.00;63434.84;5024494;28;20250;-76
2023/05/09 04:58:29;;;;;;;4.10;3.75;;;;;;;13.90;100.00;63432.25;5027364;28;20206;-74
2023/05/09 05:00:57;;;;;;;4.03;3.63;;;;;;;14.09;100.00;63450.94;5024623;28;20207;-75
2023/05/09 05:03:25;;;;;;;3.72;3.53;;;;;;;14.16;100.00;63458.22;5025830;28;20209;-76
2023/05/09 05:05:52;;;;;;;4.25;3.20;;;;;;;14.22;100.00;63464.97;5026276;28;20206;-74
2023/05/09 05:08:19;;;;;;;5.13;3.95;;;;;;;14.37;100.00;63485.69;5027761;28;20198;-74
2023/05/09 05:10:48;;;;;;;3.72;3.42;;;;;;;14.59;100.00;63502.88;5025148;28;20198;-74
2023/05/09 05:13:15;;;;;;;3.63;3.42;;;;;;;14.47;100.00;63492.97;5026619;28;20226;-74
2023/05/09 05:15:43;;;;;;;3.58;3.28;;;;;;;14.59;100.00;63503.41;5028765;28;20430;-75
2023/05/09 05:18:10;;;;;;;3.33;3.22;;;;;;;14.74;99.06;63515.91;5029222;28;20222;-75
2023/05/09 05:20:37;;;;;;;3.50;3.30;;;;;;;14.80;99.69;63527.25;5024190;28;20519;-74
2023/05/09 05:23:04;;;;;;;3.40;3.20;;;;;;;14.91;99.67;63536.66;5016238;28;20230;-74
2023/05/09 05:25:31;;;;;;;3.65;3.45;;;;;;;14.95;100.00;63540.81;5026661;28;20507;-74
2023/05/09 05:27:59;;;;;;;5.22;4.63;;;;;;;14.84;100.00;63536.56;5023320;28;20253;-74
2023/05/09 05:30:30;;;;;;;4.43;4.13;;;;;;;14.78;100.00;63520.06;5011044;28;20209;-74
2023/05/09 05:32:57;;;;;;;5.18;4.78;;;;;;;14.79;100.00;63528.78;5013975;28;20214;-75
2023/05/09 05:35:27;;;;;;;5.00;4.60;;;;;;;14.85;100.00;63530.41;5026657;28;20397;-76
2023/05/09 05:37:54;;;;;;;4.38;4.07;;;;;;;14.80;100.00;63525.22;5025334;28;20222;-76
2023/05/09 05:40:21;;;;;;;5.05;4.55;;;;;;;14.82;100.00;63529.34;5027918;28;20190;-74
2023/05/09 05:42:49;;;;;;;6.43;5.05;;;;;;;14.58;100.00;63502.34;5027538;28;20430;-74
2023/05/09 05:45:17;;;;;;;4.95;4.38;;;;;;;14.97;100.00;63540.31;5027367;28;20437;-76
2023/05/09 05:47:44;;;;;;;4.43;4.03;;;;;;;15.17;100.00;63565.19;5024717;28;20230;-74
2023/05/09 05:50:11;;;;;;;4.35;3.55;;;;;;;15.25;100.00;63570.94;5026018;28;20205;-75
2023/05/09 05:52:39;;;;;;;5.53;3.60;;;;;;;14.99;100.00;63547.53;5027238;28;20214;-75
2023/05/09 05:55:07;;;;;;;3.15;3.03;;;;;;;15.13;100.00;63561.56;5025513;28;20236;-76
2023/05/09 05:57:36;;;;;;;3.42;3.22;;;;;;;15.12;100.00;63565.13;5026789;28;20233;-74
2023/05/09 06:00:05;;;;;;;2.97;2.80;;;;;;;14.86;100.00;63530.94;5028855;28;20214;-74
2023/05/09 06:02:35;;;;;;;2.60;2.40;;;;;;;14.64;100.00;63508.59;5026948;28;20261;-76
2023/05/09 06:05:03;;;;;;;3.47;2.70;;;;;;;14.62;100.00;63509.09;5025516;28;20529;-76
2023/05/09 06:07:30;;;;;;;4.57;2.03;;;;;;;14.69;100.00;63511.22;5029495;28;20219;-75
2023/05/09 06:09:58;;;;;;;2.00;1.90;;;;;;;14.54;100.00;63498.22;5028299;28;20206;-75
2023/05/09 06:12:25;;;;;;;2.40;2.30;;;;;;;14.58;100.00;63499.78;5024209;28;20407;-74
2023/05/09 06:14:52;;;;;;;2.05;1.90;;;;;;;14.47;100.00;63492.97;5027720;28;20202;-76
2023/05/09 06:17:19;;;;;;;2.22;2.13;;;;;;;14.43;100.00;63486.25;5027276;28;20238;-77
2023/05/09 06:19:48;;;;;;;2.47;2.28;;;;;;;14.58;100.00;63499.78;5024843;28;20205;-76
2023/05/09 06:22:15;;;;;;;3.75;2.53;;;;;;;14.48;100.00;63491.97;5014832;28;20234;-74
2023/05/09 06:24:42;;;;;;;2.58;2.47;;;;;;;14.47;100.00;63490.94;5016674;28;20226;-76
2023/05/09 06:27:10;;;;;;;3.30;2.30;;;;;;;14.12;100.00;63454.56;5024211;28;20227;-76
2023/05/09 06:29:37;;;;;;;2.42;2.33;;;;;;;14.16;100.00;63461.28;5024199;28;20222;-75
2023/05/09 06:32:05;;;;;;;2.08;1.98;;;;;;;14.27;100.00;63477.34;5026667;28;20225;-75
2023/05/09 06:34:32;;;;;;;2.08;1.98;;;;;;;14.12;100.00;63457.13;5025077;28;20198;-75
2023/05/09 06:37:01;;;;;;;1.77;1.67;;;;;;;14.12;100.00;63454.06;5012520;28;20235;-75
2023/05/09 06:39:28;;;;;;;1.88;1.77;;;;;;;14.16;100.00;63460.78;5027247;28;20262;-77
2023/05/09 06:41:55;;;;;;;2.60;1.90;;;;;;;14.22;100.00;63467.00;5023364;28;22569;-76
2023/05/09 06:44:22;;;;;;;1.67;1.58;;;;;;;14.61;100.00;63504.97;5022486;28;20191;-75
2023/05/09 06:46:49;;;;;;;1.35;1.08;;;;;;;14.61;100.00;63505.50;5026117;28;20245;-75
2023/05/09 06:49:16;;;;;;;0.98;0.90;;;;;;;14.53;100.00;63497.16;5025196;28;20194;-76
2023/05/09 06:51:43;;;;;;;0.80;0.80;;;;;;;14.36;100.00;63481.56;5025254;28;20225;-74
2023/05/09 06:54:12;;;;;;;1.00;1.00;;;;;;;14.47;100.00;63493.50;5026139;28;20213;-76
2023/05/09 06:56:39;;;;;;;1.42;0.70;;;;;;;14.32;100.00;63474.84;5024595;28;20546;-75
2023/05/09 06:59:12;;;;;;;0.60;0.60;;;;;;;14.24;100.00;63469.59;5026856;28;20205;-75
2023/05/09 07:01:39;;;;;;;0.63;0.63;;;;;;;14.35;100.00;63483.59;5025654;28;20228;-78
2023/05/09 07:04:06;;;;;;;0.60;0.60;;;;;;;14.28;100.00;63473.78;5026256;28;20213;-77
2023/05/09 07:06:33;;;;;;;0.80;0.80;;;;;;;14.41;100.00;63484.19;5025229;28;20244;-77
2023/05/09 07:09:00;;;;;;;0.63;0.63;;;;;;;14.50;100.00;63491.50;5025308;28;20206;-76
2023/05/09 07:11:34;;;;;;;0.55;0.55;;;;;;;14.52;100.00;63503.31;5024836;28;20222;-76
2023/05/09 07:14:01;;;;;;;0.68;0.68;;;;;;;14.77;99.93;63522.09;5028020;28;20214;-76
2023/05/09 07:16:28;;;;;;;0.77;0.70;;;;;;;14.96;98.53;63546.47;5025801;28;20550;-77
2023/05/09 07:18:55;;;;;;;0.50;0.50;;;;;;;15.11;99.58;63548.69;5023872;28;20202;-75
2023/05/09 07:21:22;;;;;;;0.65;0.65;;;;;;;15.32;97.99;63580.78;5021901;28;20245;-76
2023/05/09 07:23:49;;;;;;;0.70;0.70;;;;;;;15.06;95.44;63549.66;5024763;28;20394;-76
2023/05/09 07:26:16;;;;;;;0.60;0.60;;;;;;;15.09;93.35;63554.84;5024064;28;20538;-76
2023/05/09 07:28:45;;;;;;;2.38;0.90;;;;;;;14.82;96.35;63529.34;5022888;28;20385;-75
2023/05/09 07:31:12;;;;;;;1.35;1.30;;;;;;;14.84;95.81;63531.44;5026632;28;20237;-75
2023/05/09 07:33:40;;;;;;;0.50;0.50;;;;;;;15.12;96.10;63557.94;5024916;28;20258;-75
2023/05/09 07:36:11;;;;;;;1.20;1.20;;;;;;;15.39;93.64;63586.00;5024765;28;20250;-76
2023/05/09 07:38:39;;;;;;;2.10;0.88;;;;;;;15.73;90.71;63620.84;5023294;28;20206;-76
2023/05/09 07:41:06;;;;;;;0.70;0.70;;;;;;;15.37;92.83;63583.41;5024693;28;20198;-75
2023/05/09 07:43:33;;;;;;;0.70;0.70;;;;;;;15.42;93.46;63594.28;5026793;28;20208;-76
2023/05/09 07:46:02;;;;;;;0.77;0.77;;;;;;;15.57;90.47;63609.34;5023912;28;20541;-76
2023/05/09 07:48:29;;;;;;;0.70;0.70;;;;;;;15.42;88.70;63589.16;5025889;28;20195;-76
2023/05/09 07:50:57;;;;;;;0.90;0.90;;;;;;;15.62;88.66;63606.84;5026695;28;20201;-77
2023/05/09 07:53:25;;;;;;;1.00;1.00;;;;;;;15.75;87.10;63620.88;5025005;28;20196;-76
2023/05/09 07:55:52;;;;;;;1.00;1.00;;;;;;;15.66;87.19;63611.00;5024797;28;20438;-77
2023/05/09 07:58:20;;;;;;;0.50;0.50;;;;;;;15.72;87.10;63620.31;5026427;28;20289;-75
2023/05/09 08:00:47;;;;;;;0.73;0.73;;;;;;;15.84;88.37;63629.72;5026542;28;20198;-76
2023/05/09 08:03:15;;;;;;;0.80;0.80;;;;;;;16.32;87.45;63682.22;5022959;28;20221;-75
2023/05/09 08:05:42;;;;;;;0.80;0.80;;;;;;;16.66;81.80;63717.59;5025370;28;20248;-76
2023/05/09 08:08:09;;;;;;;3.08;0.90;;;;;;;16.40;85.57;63690.53;5023750;28;20222;-76
2023/05/09 08:10:37;;;;;;;0.80;0.80;;;;;;;16.67;83.39;63721.19;5025830;28;20513;-76
2023/05/09 08:13:04;;;;;;;2.55;1.40;;;;;;;16.73;81.21;63730.03;5026697;28;20298;-76
2023/05/09 08:15:32;;;;;;;0.80;0.80;;;;;;;16.83;80.25;63739.91;5022421;28;20506;-76
2023/05/09 08:17:59;;;;;;;0.70;0.70;;;;;;;17.06;77.82;63764.38;5015159;28;20237;-75
2023/05/09 08:20:30;;;;;;;0.80;0.80;;;;;;;16.78;77.41;63735.22;5028284;28;20228;-77
2023/05/09 08:22:57;;;;;;;0.80;0.80;;;;;;;16.84;78.61;63735.81;5028479;28;20218;-76
2023/05/09 08:25:24;;;;;;;1.17;1.10;;;;;;;16.53;79.83;63703.56;5029566;28;20447;-76
2023/05/09 08:27:51;;;;;;;0.88;0.88;;;;;;;16.16;83.98;63663.00;5029914;28;20218;-75
2023/05/09 08:30:18;;;;;;;1.10;1.10;;;;;;;15.61;87.84;63610.94;5024206;28;20198;-75
2023/05/09 08:32:46;;;;;;;1.02;1.02;;;;;;;15.56;92.69;63608.31;5029019;28;20226;-76
2023/05/09 08:35:13;;;;;;;1.02;1.02;;;;;;;15.57;93.69;63609.34;5031132;28;20194;-76
2023/05/09 08:37:42;;;;;;;1.10;1.10;;;;;;;15.42;94.93;63591.19;5026668;28;20478;-77
2023/05/09 08:40:10;;;;;;;2.00;0.50;;;;;;;15.38;94.44;63579.84;5029038;28;20281;-76
2023/05/09 08:42:38;;;;;;;0.60;0.60;;;;;;;14.96;97.83;63544.41;5028078;28;20218;-76
2023/05/09 08:45:10;;;;;;;1.15;1.02;;;;;;;14.70;100.00;63519.44;5029162;28;20257;-75
2023/05/09 08:47:38;;;;;;;0.98;0.98;;;;;;;14.42;100.00;63487.78;5032603;28;20261;-76
2023/05/09 08:50:07;;;;;;;0.82;0.82;;;;;;;14.09;100.00;63450.94;5028849;28;20206;-76
2023/05/09 08:52:35;;;;;;;0.73;0.73;;;;;;;13.86;100.00;63428.09;5028822;28;20226;-74
2023/05/09 08:55:05;;;;;;;1.38;1.10;;;;;;;13.77;100.00;63415.69;5028995;28;20206;-75
2023/05/09 08:57:33;;;;;;;1.15;1.15;;;;;;;13.77;100.00;63418.75;5023677;28;20261;-76
2023/05/09 09:00:01;;;;;;;1.60;1.50;;;;;;;13.82;100.00;63423.44;5015216;28;20211;-74
2023/05/09 09:02:28;;;;;;;1.30;1.30;;;;;;;13.99;100.00;63441.09;5017599;28;20224;-76
2023/05/09 09:04:55;;;;;;;1.10;1.10;;;;;;;14.15;100.00;63457.69;5021495;28;20195;-76
2023/05/09 09:07:23;;;;;;;1.50;1.50;;;;;;;14.24;100.00;63466.50;5029409;28;20242;-75
2023/05/09 09:09:52;;;;;;;1.40;1.40;;;;;;;14.32;100.00;63477.94;5029167;28;20207;-75
2023/05/09 09:12:22;;;;;;;1.63;1.52;;;;;;;14.28;100.00;63470.69;5026995;28;20231;-75
2023/05/09 09:14:53;;;;;;;1.58;1.50;;;;;;;14.24;100.00;63467.03;5025813;28;20198;-74
2023/05/09 09:17:26;;;;;;;1.25;1.25;;;;;;;14.15;100.00;63457.19;5023422;28;20242;-75
2023/05/09 09:19:59;;;;;;;0.90;0.90;;;;;;;14.29;100.00;63474.31;5018893;28;20207;-75
2023/05/09 09:22:33;;;;;;;1.15;1.15;;;;;;;14.42;100.00;63483.19;5013350;28;20218;-76
2023/05/09 09:25:00;;;;;;;1.50;1.50;;;;;;;14.33;100.00;63483.56;5019564;28;20257;-75
2023/05/09 09:27:30;;;;;;;1.15;1.15;;;;;;;14.52;100.00;63498.69;5016382;28;20295;-74
2023/05/09 09:30:06;;;;;;;1.30;1.30;;;;;;;14.39;100.00;63480.06;5016662;28;20194;-74
2023/05/09 09:32:34;;;;;;;1.38;1.38;;;;;;;14.53;100.00;63494.09;5015324;28;20230;-75
2023/05/09 09:35:06;;;;;;;1.60;1.60;;;;;;;14.37;100.00;63478.00;5016445;28;20235;-74
2023/05/09 09:37:34;;;;;;;1.67;1.58;;;;;;;14.36;100.00;63479.50;5016061;28;20268;-76
2023/05/09 09:40:01;;;;;;;1.60;1.50;;;;;;;14.35;100.00;63478.47;5019897;28;20258;-75
2023/05/09 09:42:41;;;;;;;1.83;1.75;;;;;;;14.21;100.00;63466.50;5015658;28;20223;-74
2023/05/09 09:45:11;;;;;;;1.52;1.30;;;;;;;14.15;100.00;63452.56;5019265;28;20198;-75
2023/05/09 09:47:38;;;;;;;2.50;1.98;;;;;;;13.91;100.00;63435.34;5014800;28;20253;-74
2023/05/09 09:50:11;;;;;;;1.90;1.90;;;;;;;13.72;100.00;63413.03;5014449;28;20504;-76
2023/05/09 09:52:43;;;;;;;2.03;1.92;;;;;;;13.61;100.00;63402.16;5015456;28;20223;-75
2023/05/09 09:55:10;;;;;;;1.70;1.52;;;;;;;13.72;100.00;63413.03;5018126;28;20195;-75
2023/05/09 09:57:42;;;;;;;1.50;1.50;;;;;;;13.45;100.00;63385.56;5017696;28;20243;-75
2023/05/09 10:00:10;;;;;;;1.60;1.60;;;;;;;13.42;100.00;63382.44;5016524;28;20270;-74
2023/05/09 10:02:48;;;;;;;1.65;1.60;;;;;;;13.34;100.00;63376.19;5017120;28;20231;-74
2023/05/09 10:05:20;;;;;;;2.30;2.20;;;;;;;13.59;100.00;63399.56;5015130;28;20206;-74
2023/05/09 10:07:52;;;;;;;1.83;1.80;;;;;;;13.74;100.00;63415.13;5016820;28;20606;-75
2023/05/09 10:10:20;;;;;;;1.70;1.70;;;;;;;13.91;100.00;63433.28;5015197;28;20253;-75
2023/05/09 10:12:51;;;;;;;2.45;1.40;;;;;;;14.14;100.00;63456.66;5012843;28;20249;-75
2023/05/09 10:15:20;;;;;;;2.00;1.90;;;;;;;14.27;100.00;63470.16;5019847;28;20507;-75
2023/05/09 10:17:49;;;;;;;2.00;1.90;;;;;;;14.11;100.00;63458.66;5013390;28;20242;-75
2023/05/09 10:20:18;;;;;;;2.85;2.03;;;;;;;14.20;100.00;63468.03;5018818;28;20222;-75
2023/05/09 10:22:46;;;;;;;2.58;2.47;;;;;;;14.20;100.00;63457.78;5016479;28;20425;-75
2023/05/09 10:25:20;;;;;;;1.98;1.88;;;;;;;14.44;100.00;63487.31;5017638;28;20518;-74
2023/05/09 10:27:49;;;;;;;2.45;2.35;;;;;;;14.59;100.00;63500.84;5015652;28;20547;-73
2023/05/09 10:30:19;;;;;;;2.78;2.65;;;;;;;14.87;100.00;63529.41;5020637;28;20251;-74
2023/05/09 10:32:53;;;;;;;2.35;2.25;;;;;;;14.88;100.00;63530.44;5010816;28;20218;-74
2023/05/09 10:35:26;;;;;;;2.50;2.40;;;;;;;15.10;100.00;63555.84;5016583;28;20210;-73
2023/05/09 10:37:56;;;;;;;2.53;2.42;;;;;;;15.04;100.00;63547.06;5016285;28;20240;-73
2023/05/09 10:40:23;;;;;;;2.75;2.42;;;;;;;15.18;100.00;63563.66;5015633;28;20269;-73
2023/05/09 10:42:52;;;;;;;2.97;2.72;;;;;;;15.08;100.00;63553.78;5016853;28;20249;-74
2023/05/09 10:45:21;;;;;;;3.83;3.10;;;;;;;14.94;100.00;63539.75;5017632;28;20271;-74
2023/05/09 10:47:50;;;;;;;2.80;2.70;;;;;;;15.11;100.00;63556.38;5010743;28;20219;-74
2023/05/09 10:50:18;;;;;;;3.33;3.13;;;;;;;15.10;100.00;63557.91;5013512;28;20270;-73
2023/05/09 10:53:07;;;;;;;3.17;2.88;;;;;;;15.20;100.00;63565.75;5018579;28;20531;-72
2023/05/09 10:55:39;;;;;;;3.33;3.13;;;;;;;15.27;100.00;63573.03;5001611;28;20199;-73
2023/05/09 10:58:22;;;;;;;3.00;2.80;;;;;;;15.42;100.00;63591.72;5012298;28;20546;-74
2023/05/09 11:00:50;;;;;;;3.45;3.25;;;;;;;15.36;100.00;63588.00;5009766;28;20230;-74
2023/05/09 11:03:18;;;;;;;3.20;3.05;;;;;;;15.06;100.00;63551.72;5020070;28;20229;-75
2023/05/09 11:05:47;;;;;;;3.97;3.67;;;;;;;14.86;100.00;63533.50;5012138;28;20201;-74
2023/05/09 11:08:22;;;;;;;3.40;3.20;;;;;;;14.70;100.00;63517.38;5014315;28;20419;-74
2023/05/09 11:10:49;;;;;;;3.92;3.65;;;;;;;14.89;100.00;63537.13;5011303;28;20526;-73
2023/05/09 11:13:23;;;;;;;3.63;3.42;;;;;;;15.11;100.00;63556.91;5016804;28;20253;-72
2023/05/09 11:16:09;;;;;;;3.47;2.97;;;;;;;15.34;100.00;63583.38;5009069;28;20196;-74
2023/05/09 11:18:50;;;;;;;3.83;3.60;;;;;;;15.13;100.00;63561.56;5015419;28;20269;-72
2023/05/09 11:21:19;;;;;;;3.38;3.08;;;;;;;15.20;100.00;63565.75;5013442;28;20599;-73
2023/05/09 11:23:46;;;;;;;3.63;3.42;;;;;;;15.25;100.00;63571.47;5013433;28;20203;-73
2023/05/09 11:26:15;;;;;;;3.10;3.00;;;;;;;15.15;100.00;63560.56;5013563;28;20222;-73
2023/05/09 11:28:53;;;;;;;3.45;3.25;;;;;;;14.97;100.00;63542.34;5015067;28;20230;-72
2023/05/09 11:31:20;;;;;;;3.22;3.05;;;;;;;14.99;100.00;63544.97;5014672;28;20218;-73
2023/05/09 11:33:57;;;;;;;3.95;3.30;;;;;;;15.22;100.00;63572.94;5016937;28;20375;-74